createdAt,value
2022-11-18T00:02:17.580Z,2.10
2022-11-18T00:04:46.959Z,2.63
2022-11-18T00:07:16.631Z,2.30
2022-11-18T00:09:44.879Z,3.03
2022-11-18T00:12:30.699Z,2.57
2022-11-18T00:14:59.402Z,2.17
2022-11-18T00:17:27.709Z,1.70
2022-11-18T00:19:55.933Z,2.60
2022-11-18T00:22:29.886Z,2.50
2022-11-18T00:24:59.434Z,2.50
2022-11-18T00:27:27.723Z,2.20
2022-11-18T00:29:55.974Z,2.83
2022-11-18T00:32:24.295Z,2.10
2022-11-18T00:34:52.715Z,2.57
2022-11-18T00:37:20.974Z,2.73
2022-11-18T00:39:50.540Z,3.10
2022-11-18T00:42:36.346Z,2.60
2022-11-18T00:45:04.601Z,2.50
2022-11-18T00:47:32.859Z,2.60
2022-11-18T00:50:01.065Z,2.67
2022-11-18T00:52:29.344Z,3.07
2022-11-18T00:54:58.934Z,1.93
2022-11-18T00:57:28.407Z,2.10
2022-11-18T00:59:56.638Z,2.83
2022-11-18T01:02:25.103Z,2.27
2022-11-18T01:04:53.691Z,2.43
2022-11-18T01:07:22.028Z,1.97
2022-11-18T01:09:50.268Z,2.93
2022-11-18T01:12:37.501Z,2.40
2022-11-18T01:15:05.859Z,1.87
2022-11-18T01:17:34.207Z,1.83
2022-11-18T01:20:02.654Z,2.23
2022-11-18T01:22:30.960Z,2.00
2022-11-18T01:24:59.403Z,2.63
2022-11-18T01:27:29.188Z,2.33
2022-11-18T01:29:57.449Z,2.37
2022-11-18T01:32:25.943Z,2.23
2022-11-18T01:34:54.628Z,1.40
2022-11-18T01:37:22.935Z,2.40
2022-11-18T01:39:51.204Z,2.30
2022-11-18T01:42:19.740Z,1.87
2022-11-18T01:45:05.067Z,2.10
2022-11-18T01:47:35.061Z,2.40
2022-11-18T01:50:03.941Z,1.80
2022-11-18T01:52:34.076Z,1.83
2022-11-18T01:55:07.950Z,2.80
2022-11-18T01:57:36.498Z,2.90
2022-11-18T02:00:08.601Z,1.63
2022-11-18T02:02:39.467Z,1.70
2022-11-18T02:05:09.814Z,1.83
2022-11-18T02:07:39.556Z,1.80
2022-11-18T02:10:09.170Z,2.20
2022-11-18T02:12:38.056Z,2.30
2022-11-18T02:15:08.619Z,2.30
2022-11-18T02:17:43.204Z,2.27
2022-11-18T02:20:24.665Z,1.67
2022-11-18T02:23:11.531Z,2.07
2022-11-18T02:25:45.197Z,1.90
2022-11-18T02:28:28.430Z,1.90
2022-11-18T02:31:01.254Z,2.00
2022-11-18T02:33:31.543Z,1.90
2022-11-18T02:36:03.297Z,2.33
2022-11-18T02:38:34.962Z,1.50
2022-11-18T02:41:05.819Z,1.73
2022-11-18T02:43:35.708Z,2.10
2022-11-18T02:46:08.221Z,1.80
2022-11-18T02:48:37.968Z,1.90
2022-11-18T02:51:08.031Z,1.50
2022-11-18T02:53:37.252Z,1.50
2022-11-18T02:56:06.050Z,1.93
2022-11-18T02:58:34.493Z,2.27
2022-11-18T03:01:03.398Z,1.80
2022-11-18T03:03:35.427Z,2.80
2022-11-18T03:06:11.281Z,1.50
2022-11-18T03:08:41.305Z,2.17
2022-11-18T03:11:13.485Z,2.10
2022-11-18T03:13:45.340Z,2.60
2022-11-18T03:16:16.110Z,1.90
2022-11-18T03:18:49.283Z,2.10
2022-11-18T03:21:20.550Z,1.90
2022-11-18T03:23:53.791Z,2.47
2022-11-18T03:26:24.494Z,2.43
2022-11-18T03:28:57.190Z,2.63
2022-11-18T03:31:28.204Z,2.70
2022-11-18T03:33:59.587Z,2.80
2022-11-18T03:36:31.107Z,2.30
2022-11-18T03:39:01.138Z,2.00
2022-11-18T03:41:31.433Z,2.80
2022-11-18T03:44:03.107Z,2.30
2022-11-18T03:46:34.383Z,2.60
2022-11-18T03:49:05.994Z,2.20
2022-11-18T03:51:35.593Z,2.50
2022-11-18T03:54:05.254Z,3.90
2022-11-18T03:56:37.080Z,2.17
2022-11-18T03:59:09.766Z,2.10
2022-11-18T04:01:41.467Z,2.70
2022-11-18T04:04:11.291Z,2.57
2022-11-18T04:06:44.005Z,3.13
2022-11-18T04:09:15.721Z,2.23
2022-11-18T04:12:04.780Z,2.83
2022-11-18T04:14:33.759Z,2.60
2022-11-18T04:17:02.090Z,2.77
2022-11-18T04:19:31.809Z,2.30
2022-11-18T04:22:00.244Z,2.33
2022-11-18T04:24:28.530Z,2.70
2022-11-18T04:26:56.941Z,3.03
2022-11-18T04:29:25.271Z,3.33
2022-11-18T04:31:53.671Z,2.50
2022-11-18T04:34:21.930Z,3.27
2022-11-18T04:36:51.566Z,3.17
2022-11-18T04:39:20.026Z,3.10
2022-11-18T04:41:57.372Z,2.60
2022-11-18T04:44:26.451Z,2.77
2022-11-18T04:46:54.755Z,3.03
2022-11-18T04:49:23.050Z,3.00
2022-11-18T04:51:53.223Z,3.10
2022-11-18T04:54:22.197Z,3.77
2022-11-18T04:56:50.474Z,2.97
2022-11-18T04:59:20.659Z,3.63
2022-11-18T05:01:49.337Z,3.60
2022-11-18T05:04:18.967Z,2.80
2022-11-18T05:06:47.429Z,3.60
2022-11-18T05:09:19.101Z,3.33
2022-11-18T05:12:05.330Z,3.60
2022-11-18T05:14:35.114Z,3.70
2022-11-18T05:17:04.100Z,3.67
2022-11-18T05:19:32.432Z,4.50
2022-11-18T05:22:01.087Z,3.70
2022-11-18T05:24:31.151Z,4.13
2022-11-18T05:26:59.438Z,3.27
2022-11-18T05:29:28.714Z,4.47
2022-11-18T05:31:56.919Z,3.70
2022-11-18T05:34:25.484Z,3.70
2022-11-18T05:36:53.723Z,4.90
2022-11-18T05:39:22.034Z,3.57
2022-11-18T05:42:09.496Z,4.17
2022-11-18T05:44:37.759Z,5.13
2022-11-18T05:47:06.115Z,4.07
2022-11-18T05:49:34.491Z,3.97
2022-11-18T05:52:02.903Z,3.57
2022-11-18T05:54:31.478Z,4.40
2022-11-18T05:57:01.099Z,4.13
2022-11-18T05:59:29.887Z,4.20
2022-11-18T06:02:01.169Z,4.17
2022-11-18T06:04:32.402Z,4.00
2022-11-18T06:07:04.461Z,4.03
2022-11-18T06:09:33.983Z,3.87
2022-11-18T06:12:06.030Z,3.83
2022-11-18T06:14:37.397Z,4.37
2022-11-18T06:17:08.206Z,3.50
2022-11-18T06:19:36.523Z,3.90
2022-11-18T06:22:05.434Z,4.80
2022-11-18T06:24:33.963Z,4.50
2022-11-18T06:27:04.770Z,3.63
2022-11-18T06:29:33.134Z,4.40
2022-11-18T06:32:01.556Z,4.30
2022-11-18T06:34:29.752Z,3.17
2022-11-18T06:36:58.100Z,4.03
2022-11-18T06:39:26.566Z,3.50
2022-11-18T06:41:55.159Z,4.70
2022-11-18T06:44:23.770Z,4.47
2022-11-18T06:46:57.998Z,4.30
2022-11-18T06:49:26.784Z,3.40
2022-11-18T06:51:55.268Z,3.70
2022-11-18T06:54:23.634Z,4.73
2022-11-18T06:56:52.005Z,3.73
2022-11-18T06:59:24.177Z,4.23
2022-11-18T07:01:54.161Z,4.77
2022-11-18T07:04:22.595Z,4.10
2022-11-18T07:06:51.032Z,3.60
2022-11-18T07:09:19.567Z,2.93
2022-11-18T07:11:48.063Z,3.53
2022-11-18T07:14:16.764Z,3.60
2022-11-18T07:16:45.065Z,3.20
2022-11-18T07:19:15.714Z,3.30
2022-11-18T07:21:44.513Z,3.23
2022-11-18T07:24:14.312Z,3.83
2022-11-18T07:26:43.157Z,3.70
2022-11-18T07:29:11.569Z,3.80
2022-11-18T07:31:40.906Z,4.30
2022-11-18T07:34:12.299Z,4.27
2022-11-18T07:36:42.282Z,3.37
2022-11-18T07:39:10.638Z,4.40
2022-11-18T07:41:40.910Z,4.97
2022-11-18T07:44:09.538Z,4.30
2022-11-18T07:46:38.316Z,4.20
2022-11-18T07:49:07.273Z,4.00
2022-11-18T07:51:36.503Z,4.03
2022-11-18T07:54:08.997Z,4.07
2022-11-18T07:56:39.685Z,4.30
2022-11-18T07:59:08.114Z,4.50
2022-11-18T08:01:36.774Z,5.20
2022-11-18T08:04:09.485Z,3.80
2022-11-18T08:06:39.182Z,4.73
2022-11-18T08:09:09.516Z,4.03
2022-11-18T08:11:38.594Z,4.53
2022-11-18T08:14:07.097Z,5.50
2022-11-18T08:16:36.571Z,4.30
2022-11-18T08:19:05.422Z,4.80
2022-11-18T08:21:33.851Z,3.60
2022-11-18T08:24:02.478Z,4.13
2022-11-18T08:26:32.374Z,4.23
2022-11-18T08:29:01.105Z,4.50
2022-11-18T08:31:30.504Z,4.80
2022-11-18T08:33:59.132Z,5.10
2022-11-18T08:36:28.842Z,4.73
2022-11-18T08:38:57.868Z,4.80
2022-11-18T08:41:29.692Z,5.10
2022-11-18T08:43:59.463Z,4.80
2022-11-18T08:46:28.047Z,5.70
2022-11-18T08:48:56.570Z,5.20
2022-11-18T08:51:25.146Z,4.33
2022-11-18T08:53:53.996Z,5.27
2022-11-18T08:56:24.761Z,4.60
2022-11-18T08:58:53.469Z,4.03
2022-11-18T09:01:23.199Z,5.23
2022-11-18T09:03:52.017Z,4.30
2022-11-18T09:06:21.200Z,4.47
2022-11-18T09:08:50.156Z,3.53
2022-11-18T09:11:19.000Z,4.53
2022-11-18T09:14:20.529Z,2.77
2022-11-18T09:16:37.677Z,2.50
2022-11-18T09:19:31.511Z,2.87
2022-11-18T09:21:55.468Z,3.40
2022-11-18T09:24:23.718Z,2.87
2022-11-18T09:26:54.326Z,2.80
2022-11-18T09:29:26.188Z,2.60
2022-11-18T09:31:56.327Z,2.57
2022-11-18T09:34:31.195Z,2.73
2022-11-18T09:37:00.086Z,2.80
2022-11-18T09:39:28.717Z,2.43
2022-11-18T09:42:01.091Z,2.77
2022-11-18T09:44:37.099Z,2.43
2022-11-18T09:47:10.678Z,2.77
2022-11-18T09:49:40.505Z,2.47
2022-11-18T09:52:12.430Z,2.40
2022-11-18T09:54:41.258Z,2.60
2022-11-18T09:57:13.866Z,2.30
2022-11-18T09:59:43.387Z,2.40
2022-11-18T10:02:28.665Z,3.10
2022-11-18T10:04:57.042Z,2.93
2022-11-18T10:07:32.264Z,3.10
2022-11-18T10:10:04.818Z,2.57
2022-11-18T10:12:40.011Z,2.57
2022-11-18T10:15:19.107Z,2.60
2022-11-18T10:17:53.172Z,1.80
2022-11-18T10:20:32.028Z,2.57
2022-11-18T10:23:04.499Z,2.77
2022-11-18T10:25:32.943Z,2.00
2022-11-18T10:28:04.485Z,3.03
2022-11-18T10:30:32.735Z,2.83
2022-11-18T10:33:03.545Z,2.70
2022-11-18T10:35:32.958Z,2.97
2022-11-18T10:38:08.516Z,2.23
2022-11-18T10:40:38.897Z,1.80
2022-11-18T10:43:07.374Z,2.80
2022-11-18T10:45:35.715Z,2.20
2022-11-18T10:48:10.318Z,2.20
2022-11-18T10:50:39.523Z,2.27
2022-11-18T10:53:08.542Z,2.40
2022-11-18T10:55:39.714Z,2.20
2022-11-18T10:58:11.560Z,2.30
2022-11-18T11:00:42.230Z,2.67
2022-11-18T11:03:28.681Z,2.53
2022-11-18T11:06:16.715Z,2.03
2022-11-18T11:08:52.505Z,2.80
2022-11-18T11:11:26.263Z,2.57
2022-11-18T11:13:56.356Z,2.20
2022-11-18T11:16:26.548Z,2.10
2022-11-18T11:18:58.469Z,3.30
2022-11-18T11:21:28.457Z,2.40
2022-11-18T11:23:56.853Z,1.80
2022-11-18T11:29:26.818Z,2.23
2022-11-18T11:31:59.195Z,2.70
2022-11-18T11:34:35.246Z,3.17
2022-11-18T11:37:06.834Z,2.50
2022-11-18T11:39:51.077Z,2.40
2022-11-18T11:42:29.326Z,2.50
2022-11-18T11:45:06.722Z,2.67
2022-11-18T11:47:51.026Z,4.47
2022-11-18T11:50:24.552Z,2.67
2022-11-18T11:53:04.703Z,2.47
2022-11-18T11:55:35.903Z,2.57
2022-11-18T11:58:16.247Z,2.70
2022-11-18T12:00:48.668Z,2.60
2022-11-18T12:03:23.135Z,2.30
2022-11-18T12:05:52.760Z,2.60
2022-11-18T12:08:23.057Z,2.03
2022-11-18T12:10:53.832Z,2.40
2022-11-18T12:13:31.572Z,2.03
2022-11-18T12:16:03.900Z,2.30
2022-11-18T12:18:38.063Z,2.10
2022-11-18T12:21:07.691Z,2.43
2022-11-18T12:23:36.136Z,2.17
2022-11-18T12:26:05.951Z,2.30
2022-11-18T12:28:36.128Z,2.57
2022-11-18T12:31:22.871Z,2.97
2022-11-18T12:33:52.939Z,3.47
2022-11-18T12:36:28.338Z,2.90
2022-11-18T12:38:57.467Z,2.67
2022-11-18T12:44:49.398Z,2.30
2022-11-18T12:47:21.644Z,2.40
2022-11-18T12:50:18.811Z,2.00
2022-11-18T12:52:49.803Z,1.87
2022-11-18T12:55:22.138Z,2.30
2022-11-18T12:57:51.518Z,2.90
2022-11-18T13:00:29.523Z,2.97
2022-11-18T13:02:58.850Z,2.33
2022-11-18T13:05:28.247Z,1.83
2022-11-18T13:08:17.851Z,3.00
2022-11-18T13:10:55.881Z,2.20
2022-11-18T13:13:27.942Z,2.00
2022-11-18T13:16:14.953Z,2.70
2022-11-18T13:18:50.204Z,2.03
2022-11-18T13:21:46.730Z,2.00
2022-11-18T13:24:16.864Z,2.30
2022-11-18T13:26:46.405Z,2.93
2022-11-18T13:29:22.265Z,2.03
2022-11-18T13:31:56.835Z,2.20
2022-11-18T13:34:25.938Z,2.13
2022-11-18T13:36:55.123Z,1.67
2022-11-18T13:39:25.503Z,1.50
2022-11-18T13:42:00.876Z,2.30
2022-11-18T13:44:29.749Z,1.57
2022-11-18T13:47:01.116Z,1.20
2022-11-18T13:49:35.145Z,1.87
2022-11-18T13:52:03.623Z,1.50
2022-11-18T13:54:33.509Z,1.40
2022-11-18T13:57:02.913Z,1.63
2022-11-18T13:59:34.216Z,1.80
2022-11-18T14:02:03.316Z,1.60
2022-11-18T14:04:33.150Z,1.77
2022-11-18T14:07:19.945Z,1.60
2022-11-18T14:09:55.971Z,1.90
2022-11-18T14:12:25.665Z,1.70
2022-11-18T14:14:55.245Z,2.00
2022-11-18T14:17:26.322Z,2.13
2022-11-18T14:20:10.046Z,1.90
2022-11-18T14:22:44.408Z,2.50
2022-11-18T14:25:21.963Z,1.70
2022-11-18T14:27:51.638Z,1.60
2022-11-18T14:30:29.788Z,2.00
2022-11-18T14:33:15.547Z,1.80
2022-11-18T14:35:45.055Z,1.90
2022-11-18T14:41:08.020Z,2.07
2022-11-18T14:43:37.498Z,2.23
2022-11-18T14:46:08.609Z,1.60
2022-11-18T14:48:36.900Z,2.03
2022-11-18T14:51:05.247Z,1.90
2022-11-18T14:53:33.465Z,1.70
2022-11-18T14:56:01.714Z,1.83
2022-11-18T14:58:31.290Z,1.53
2022-11-18T15:00:59.878Z,1.90
2022-11-18T15:03:29.424Z,1.80
2022-11-18T15:05:57.625Z,1.97
2022-11-18T15:08:25.874Z,1.50
2022-11-18T15:10:54.249Z,1.80
2022-11-18T15:13:22.641Z,1.87
2022-11-18T15:15:52.281Z,1.90
2022-11-18T15:18:25.079Z,2.30
2022-11-18T15:20:53.406Z,1.63
2022-11-18T15:23:24.513Z,2.00
2022-11-18T15:25:57.024Z,1.97
2022-11-18T15:28:25.289Z,2.30
2022-11-18T15:30:55.195Z,2.40
2022-11-18T15:33:23.545Z,2.23
2022-11-18T15:35:52.227Z,2.03
2022-11-18T15:38:20.443Z,2.10
2022-11-18T15:40:48.788Z,2.50
2022-11-18T15:43:17.779Z,2.10
2022-11-18T15:45:46.745Z,2.20
2022-11-18T15:48:16.488Z,2.57
2022-11-18T15:50:44.754Z,2.70
2022-11-18T15:53:12.960Z,2.97
2022-11-18T15:55:41.449Z,3.20
2022-11-18T15:58:09.840Z,2.20
2022-11-18T16:00:38.092Z,2.93
2022-11-18T16:03:09.467Z,2.40
2022-11-18T16:05:39.090Z,3.60
2022-11-18T16:08:07.414Z,2.70
2022-11-18T16:10:53.359Z,3.17
2022-11-18T16:13:22.619Z,2.13
2022-11-18T16:15:51.311Z,2.17
2022-11-18T16:18:19.670Z,2.53
2022-11-18T16:20:49.292Z,2.73
2022-11-18T16:23:17.512Z,2.53
2022-11-18T16:25:46.450Z,2.00
2022-11-18T16:28:14.889Z,2.00
2022-11-18T16:31:00.779Z,2.93
2022-11-18T16:33:28.997Z,2.27
2022-11-18T16:35:58.735Z,2.10
2022-11-18T16:38:27.036Z,3.33
2022-11-18T16:40:58.221Z,3.90
2022-11-18T16:43:26.730Z,4.37
2022-11-18T16:45:55.676Z,4.20
2022-11-18T16:48:24.130Z,3.47
2022-11-18T16:50:57.335Z,3.53
2022-11-18T16:53:26.986Z,3.17
2022-11-18T16:55:55.538Z,3.93
2022-11-18T16:58:23.768Z,2.83
2022-11-18T17:01:17.601Z,4.53
2022-11-18T17:03:40.456Z,3.73
2022-11-18T17:06:09.227Z,3.80
2022-11-18T17:08:41.465Z,4.20
2022-11-18T17:11:10.626Z,4.40
2022-11-18T17:13:39.688Z,4.77
2022-11-18T17:16:08.667Z,5.90
2022-11-18T17:18:37.563Z,4.93
2022-11-18T17:21:07.005Z,4.60
2022-11-18T17:23:35.254Z,4.43
2022-11-18T17:26:06.122Z,4.17
2022-11-18T17:28:34.987Z,5.73
2022-11-18T17:31:06.443Z,3.80
2022-11-18T17:33:34.803Z,4.73
2022-11-18T17:36:03.615Z,5.40
2022-11-18T17:38:32.720Z,6.57
2022-11-18T17:41:01.200Z,5.80
2022-11-18T17:43:31.012Z,5.90
2022-11-18T17:46:00.243Z,5.97
2022-11-18T17:48:29.979Z,8.07
2022-11-18T17:51:05.032Z,8.07
2022-11-18T17:53:33.678Z,6.60
2022-11-18T17:56:04.126Z,5.67
2022-11-18T17:58:34.138Z,5.53
2022-11-18T18:01:08.792Z,3.60
2022-11-18T18:03:39.296Z,4.23
2022-11-18T18:06:08.997Z,4.23
2022-11-18T18:08:37.628Z,4.13
2022-11-18T18:11:06.147Z,4.77
2022-11-18T18:13:53.693Z,4.43
2022-11-18T18:16:22.706Z,5.33
2022-11-18T18:18:51.294Z,4.73
2022-11-18T18:21:19.508Z,4.37
2022-11-18T18:23:48.108Z,4.63
2022-11-18T18:26:16.600Z,4.27
2022-11-18T18:28:46.389Z,4.30
2022-11-18T18:31:16.327Z,5.37
2022-11-18T18:33:44.826Z,4.83
2022-11-18T18:36:14.410Z,4.47
2022-11-18T18:38:43.829Z,4.03
2022-11-18T18:41:12.947Z,4.20
2022-11-18T18:43:41.587Z,4.30
2022-11-18T18:46:31.421Z,3.70
2022-11-18T18:49:01.482Z,4.70
2022-11-18T18:51:30.534Z,4.93
2022-11-18T18:53:59.006Z,3.13
2022-11-18T18:56:27.696Z,3.20
2022-11-18T18:58:57.489Z,3.00
2022-11-18T19:01:28.137Z,2.40
2022-11-18T19:03:57.323Z,2.23
2022-11-18T19:09:16.527Z,3.13
2022-11-18T19:12:02.767Z,2.17
2022-11-18T19:14:31.523Z,2.33
2022-11-18T19:17:05.032Z,2.73
2022-11-18T19:19:55.787Z,2.30
2022-11-18T19:22:24.052Z,2.77
2022-11-18T19:24:53.039Z,1.90
2022-11-18T19:27:23.097Z,3.00
2022-11-18T19:29:52.686Z,2.43
2022-11-18T19:32:22.335Z,3.40
2022-11-18T19:34:50.757Z,2.70
2022-11-18T19:37:20.060Z,3.20
2022-11-18T19:39:48.386Z,4.10
2022-11-18T19:42:17.957Z,3.90
2022-11-18T19:44:47.005Z,3.93
2022-11-18T19:47:15.332Z,6.07
2022-11-18T19:49:45.298Z,8.77
2022-11-18T19:52:14.656Z,6.60
2022-11-18T19:54:43.111Z,5.60
2022-11-18T19:57:11.360Z,8.03
2022-11-18T19:59:39.962Z,6.03
2022-11-18T20:02:08.217Z,4.70
2022-11-18T20:04:36.437Z,5.13
2022-11-18T20:07:06.297Z,4.77
2022-11-18T20:09:34.743Z,3.97
2022-11-18T20:12:03.472Z,4.37
2022-11-18T20:14:32.815Z,4.80
2022-11-18T20:17:01.178Z,3.50
2022-11-18T20:19:33.684Z,3.93
2022-11-18T20:22:01.931Z,5.50
2022-11-18T20:24:32.771Z,4.20
2022-11-18T20:27:00.987Z,4.93
2022-11-18T20:29:29.233Z,5.00
2022-11-18T20:31:58.585Z,4.90
2022-11-18T20:34:26.841Z,4.60
2022-11-18T20:36:56.037Z,5.00
2022-11-18T20:39:24.573Z,4.43
2022-11-18T20:42:08.058Z,5.77
2022-11-18T20:44:36.332Z,6.43
2022-11-18T20:47:04.679Z,9.00
2022-11-18T20:49:34.158Z,6.70
2022-11-18T20:52:02.427Z,7.33
2022-11-18T20:54:30.594Z,10.03
2022-11-18T20:57:00.441Z,6.83
2022-11-18T20:59:28.787Z,4.97
2022-11-18T21:01:57.046Z,5.80
2022-11-18T21:04:25.640Z,6.10
2022-11-18T21:06:58.799Z,5.80
2022-11-18T21:09:31.456Z,6.10
2022-11-18T21:12:01.367Z,5.60
2022-11-18T21:14:28.775Z,6.03
2022-11-18T21:17:00.480Z,6.73
2022-11-18T21:19:28.959Z,7.33
2022-11-18T21:21:56.527Z,6.60
2022-11-18T21:24:26.498Z,6.93
2022-11-18T21:26:55.371Z,7.87
2022-11-18T21:29:25.879Z,6.47
2022-11-18T21:31:54.667Z,6.63
2022-11-18T21:34:23.231Z,6.70
2022-11-18T21:36:54.959Z,5.87
2022-11-18T21:39:23.690Z,7.50
2022-11-18T21:41:55.629Z,7.93
2022-11-18T21:44:27.924Z,7.83
2022-11-18T21:46:57.130Z,6.83
2022-11-18T21:49:25.530Z,6.20
2022-11-18T21:51:53.802Z,8.10
2022-11-18T21:54:22.264Z,7.23
2022-11-18T21:56:50.652Z,7.97
2022-11-18T21:59:19.363Z,5.43
2022-11-18T22:01:49.359Z,7.50
2022-11-18T22:04:31.531Z,8.07
2022-11-18T22:07:00.087Z,6.87
2022-11-18T22:09:34.645Z,8.20
2022-11-18T22:12:04.707Z,7.63
2022-11-18T22:14:34.181Z,8.83
2022-11-18T22:17:03.974Z,8.03
2022-11-18T22:19:32.597Z,8.10
2022-11-18T22:22:00.919Z,7.53
2022-11-18T22:24:29.340Z,7.20
2022-11-18T22:26:57.688Z,6.60
2022-11-18T22:29:26.235Z,7.73
2022-11-18T22:31:54.803Z,6.60
2022-11-18T22:34:24.535Z,7.00
2022-11-18T22:36:52.948Z,6.97
2022-11-18T22:39:21.855Z,6.43
2022-11-18T22:42:08.396Z,6.83
2022-11-18T22:44:37.711Z,5.90
2022-11-18T22:47:06.012Z,6.00
2022-11-18T22:49:35.647Z,6.03
2022-11-18T22:52:03.931Z,5.57
2022-11-18T22:54:40.201Z,5.23
2022-11-18T22:57:09.010Z,5.90
2022-11-18T22:59:37.501Z,6.20
2022-11-18T23:02:06.151Z,5.63
2022-11-18T23:04:35.952Z,5.90
2022-11-18T23:07:04.269Z,5.80
2022-11-18T23:09:32.630Z,5.30
2022-11-18T23:12:18.717Z,6.67
2022-11-18T23:14:46.988Z,6.30
2022-11-18T23:17:15.975Z,6.07
2022-11-18T23:19:46.924Z,5.77
2022-11-18T23:22:17.480Z,5.13
2022-11-18T23:24:45.817Z,6.40
2022-11-18T23:27:14.033Z,7.40
2022-11-18T23:29:42.296Z,5.37
2022-11-18T23:32:10.551Z,5.33
2022-11-18T23:34:38.855Z,5.70
2022-11-18T23:37:08.452Z,5.67
2022-11-18T23:39:37.311Z,5.97
2022-11-18T23:42:05.876Z,5.70
2022-11-18T23:44:46.391Z,6.57
2022-11-18T23:47:14.956Z,5.83
2022-11-18T23:49:43.250Z,7.23
2022-11-18T23:52:12.828Z,7.13
2022-11-18T23:54:42.175Z,6.50
2022-11-18T23:57:10.426Z,7.23
2022-11-18T23:59:38.745Z,7.67
